sensor_id;sensor_type;location;lat;lon;timestamp;P1;durP1;ratioP1;P2;durP2;ratioP2
4873;SDS011;2451;49.970;9.068;2022-12-15T00:00:53;43.25;;;21.70;;
4873;SDS011;2451;49.970;9.068;2022-12-15T00:03:37;44.42;;;22.48;;
4873;SDS011;2451;49.970;9.068;2022-12-15T00:06:22;40.22;;;21.75;;
4873;SDS011;2451;49.970;9.068;2022-12-15T00:09:06;37.92;;;21.42;;
4873;SDS011;2451;49.970;9.068;2022-12-15T00:11:50;39.55;;;21.33;;
4873;SDS011;2451;49.970;9.068;2022-12-15T00:14:34;40.15;;;20.90;;
4873;SDS011;2451;49.970;9.068;2022-12-15T00:17:18;41.97;;;20.80;;
4873;SDS011;2451;49.970;9.068;2022-12-15T00:20:02;33.53;;;20.38;;
4873;SDS011;2451;49.970;9.068;2022-12-15T00:22:46;40.15;;;22.10;;
4873;SDS011;2451;49.970;9.068;2022-12-15T00:25:30;41.72;;;20.65;;
4873;SDS011;2451;49.970;9.068;2022-12-15T00:28:14;38.55;;;20.98;;
4873;SDS011;2451;49.970;9.068;2022-12-15T00:30:58;41.05;;;22.00;;
4873;SDS011;2451;49.970;9.068;2022-12-15T00:33:42;42.63;;;21.75;;
4873;SDS011;2451;49.970;9.068;2022-12-15T00:36:26;38.08;;;21.08;;
4873;SDS011;2451;49.970;9.068;2022-12-15T00:39:10;36.38;;;19.60;;
4873;SDS011;2451;49.970;9.068;2022-12-15T00:41:36;38.40;;;20.63;;
4873;SDS011;2451;49.970;9.068;2022-12-15T00:44:02;41.20;;;22.35;;
4873;SDS011;2451;49.970;9.068;2022-12-15T00:46:27;51.35;;;25.30;;
4873;SDS011;2451;49.970;9.068;2022-12-15T00:49:11;47.53;;;23.73;;
4873;SDS011;2451;49.970;9.068;2022-12-15T00:51:55;44.85;;;22.00;;
4873;SDS011;2451;49.970;9.068;2022-12-15T00:54:40;45.85;;;23.40;;
4873;SDS011;2451;49.970;9.068;2022-12-15T00:57:23;42.95;;;21.98;;
4873;SDS011;2451;49.970;9.068;2022-12-15T01:00:08;39.50;;;20.75;;
4873;SDS011;2451;49.970;9.068;2022-12-15T01:02:52;39.53;;;21.05;;
4873;SDS011;2451;49.970;9.068;2022-12-15T01:05:36;40.58;;;20.55;;
4873;SDS011;2451;49.970;9.068;2022-12-15T01:08:21;38.38;;;20.67;;
4873;SDS011;2451;49.970;9.068;2022-12-15T01:11:05;46.15;;;21.75;;
4873;SDS011;2451;49.970;9.068;2022-12-15T01:13:49;38.83;;;20.00;;
4873;SDS011;2451;49.970;9.068;2022-12-15T01:16:33;37.00;;;20.25;;
4873;SDS011;2451;49.970;9.068;2022-12-15T01:19:17;39.75;;;20.70;;
4873;SDS011;2451;49.970;9.068;2022-12-15T01:22:01;35.08;;;19.33;;
4873;SDS011;2451;49.970;9.068;2022-12-15T01:24:26;35.35;;;19.73;;
4873;SDS011;2451;49.970;9.068;2022-12-15T01:26:52;40.30;;;19.92;;
4873;SDS011;2451;49.970;9.068;2022-12-15T01:29:18;36.67;;;19.50;;
4873;SDS011;2451;49.970;9.068;2022-12-15T01:31:44;37.60;;;20.33;;
4873;SDS011;2451;49.970;9.068;2022-12-15T01:34:10;36.25;;;19.55;;
4873;SDS011;2451;49.970;9.068;2022-12-15T01:36:35;36.22;;;18.88;;
4873;SDS011;2451;49.970;9.068;2022-12-15T01:39:01;38.95;;;20.35;;
4873;SDS011;2451;49.970;9.068;2022-12-15T01:41:26;37.47;;;20.02;;
4873;SDS011;2451;49.970;9.068;2022-12-15T01:43:53;36.10;;;19.70;;
4873;SDS011;2451;49.970;9.068;2022-12-15T01:46:20;35.67;;;18.92;;
4873;SDS011;2451;49.970;9.068;2022-12-15T01:48:53;34.65;;;20.30;;
4873;SDS011;2451;49.970;9.068;2022-12-15T01:51:25;37.35;;;20.10;;
4873;SDS011;2451;49.970;9.068;2022-12-15T01:54:04;36.97;;;19.20;;
4873;SDS011;2451;49.970;9.068;2022-12-15T01:56:38;36.90;;;19.83;;
4873;SDS011;2451;49.970;9.068;2022-12-15T01:59:08;37.90;;;18.52;;
4873;SDS011;2451;49.970;9.068;2022-12-15T02:01:38;36.95;;;18.63;;
4873;SDS011;2451;49.970;9.068;2022-12-15T02:04:04;33.88;;;18.98;;
4873;SDS011;2451;49.970;9.068;2022-12-15T02:06:30;36.97;;;19.23;;
4873;SDS011;2451;49.970;9.068;2022-12-15T02:08:57;35.05;;;18.65;;
4873;SDS011;2451;49.970;9.068;2022-12-15T02:16:44;37.20;;;18.98;;
4873;SDS011;2451;49.970;9.068;2022-12-15T02:30:58;37.90;;;19.92;;
4873;SDS011;2451;49.970;9.068;2022-12-15T02:33:50;47.10;;;23.63;;
4873;SDS011;2451;49.970;9.068;2022-12-15T02:36:28;43.97;;;22.27;;
4873;SDS011;2451;49.970;9.068;2022-12-15T02:38:59;43.58;;;20.95;;
4873;SDS011;2451;49.970;9.068;2022-12-15T02:41:36;40.17;;;21.33;;
4873;SDS011;2451;49.970;9.068;2022-12-15T02:44:11;41.35;;;21.00;;
4873;SDS011;2451;49.970;9.068;2022-12-15T02:57:53;34.45;;;18.65;;
4873;SDS011;2451;49.970;9.068;2022-12-15T03:00:27;33.67;;;18.48;;
4873;SDS011;2451;49.970;9.068;2022-12-15T03:02:55;33.63;;;19.23;;
4873;SDS011;2451;49.970;9.068;2022-12-15T03:05:21;36.03;;;19.23;;
4873;SDS011;2451;49.970;9.068;2022-12-15T03:07:49;32.97;;;18.40;;
4873;SDS011;2451;49.970;9.068;2022-12-15T03:10:17;36.22;;;18.05;;
4873;SDS011;2451;49.970;9.068;2022-12-15T03:12:44;36.05;;;18.30;;
4873;SDS011;2451;49.970;9.068;2022-12-15T03:15:09;32.83;;;18.05;;
4873;SDS011;2451;49.970;9.068;2022-12-15T03:17:35;38.78;;;18.38;;
4873;SDS011;2451;49.970;9.068;2022-12-15T03:20:02;31.75;;;17.85;;
4873;SDS011;2451;49.970;9.068;2022-12-15T03:22:28;33.78;;;17.58;;
4873;SDS011;2451;49.970;9.068;2022-12-15T03:24:54;33.17;;;17.58;;
4873;SDS011;2451;49.970;9.068;2022-12-15T03:27:20;33.03;;;17.70;;
4873;SDS011;2451;49.970;9.068;2022-12-15T03:29:45;36.20;;;18.27;;
4873;SDS011;2451;49.970;9.068;2022-12-15T03:32:11;34.67;;;18.83;;
4873;SDS011;2451;49.970;9.068;2022-12-15T03:34:36;32.28;;;17.63;;
4873;SDS011;2451;49.970;9.068;2022-12-15T03:37:02;37.00;;;18.77;;
4873;SDS011;2451;49.970;9.068;2022-12-15T03:39:28;35.20;;;18.13;;
4873;SDS011;2451;49.970;9.068;2022-12-15T03:41:53;36.15;;;18.15;;
4873;SDS011;2451;49.970;9.068;2022-12-15T03:44:19;33.92;;;18.20;;
4873;SDS011;2451;49.970;9.068;2022-12-15T03:46:44;39.20;;;19.95;;
4873;SDS011;2451;49.970;9.068;2022-12-15T03:49:10;37.00;;;20.80;;
4873;SDS011;2451;49.970;9.068;2022-12-15T03:51:36;35.58;;;18.88;;
4873;SDS011;2451;49.970;9.068;2022-12-15T03:54:01;37.00;;;18.25;;
4873;SDS011;2451;49.970;9.068;2022-12-15T03:56:27;36.70;;;18.33;;
4873;SDS011;2451;49.970;9.068;2022-12-15T03:58:52;34.85;;;17.67;;
4873;SDS011;2451;49.970;9.068;2022-12-15T04:01:22;32.97;;;17.48;;
4873;SDS011;2451;49.970;9.068;2022-12-15T04:03:54;34.80;;;17.95;;
4873;SDS011;2451;49.970;9.068;2022-12-15T04:06:20;31.33;;;16.83;;
4873;SDS011;2451;49.970;9.068;2022-12-15T04:08:46;33.72;;;17.83;;
4873;SDS011;2451;49.970;9.068;2022-12-15T04:11:12;35.38;;;17.60;;
4873;SDS011;2451;49.970;9.068;2022-12-15T04:13:38;35.75;;;17.42;;
4873;SDS011;2451;49.970;9.068;2022-12-15T04:16:03;34.95;;;17.75;;
4873;SDS011;2451;49.970;9.068;2022-12-15T04:18:29;36.25;;;17.58;;
4873;SDS011;2451;49.970;9.068;2022-12-15T04:20:55;34.08;;;17.58;;
4873;SDS011;2451;49.970;9.068;2022-12-15T04:23:21;36.08;;;18.52;;
4873;SDS011;2451;49.970;9.068;2022-12-15T04:25:47;35.25;;;16.90;;
4873;SDS011;2451;49.970;9.068;2022-12-15T04:28:31;35.78;;;19.05;;
4873;SDS011;2451;49.970;9.068;2022-12-15T04:31:36;37.80;;;18.77;;
4873;SDS011;2451;49.970;9.068;2022-12-15T04:34:21;39.10;;;18.67;;
4873;SDS011;2451;49.970;9.068;2022-12-15T04:37:08;35.40;;;18.02;;
4873;SDS011;2451;49.970;9.068;2022-12-15T04:39:54;36.50;;;17.73;;
4873;SDS011;2451;49.970;9.068;2022-12-15T04:42:40;33.03;;;18.27;;
4873;SDS011;2451;49.970;9.068;2022-12-15T04:45:27;37.38;;;19.63;;
4873;SDS011;2451;49.970;9.068;2022-12-15T04:48:11;35.70;;;18.25;;
4873;SDS011;2451;49.970;9.068;2022-12-15T04:50:56;39.28;;;19.67;;
4873;SDS011;2451;49.970;9.068;2022-12-15T04:53:43;35.63;;;17.58;;
4873;SDS011;2451;49.970;9.068;2022-12-15T04:56:28;35.28;;;18.50;;
4873;SDS011;2451;49.970;9.068;2022-12-15T04:59:14;34.15;;;18.75;;
4873;SDS011;2451;49.970;9.068;2022-12-15T05:01:57;32.45;;;17.33;;
4873;SDS011;2451;49.970;9.068;2022-12-15T05:04:41;34.65;;;18.42;;
4873;SDS011;2451;49.970;9.068;2022-12-15T05:07:25;34.70;;;17.20;;
4873;SDS011;2451;49.970;9.068;2022-12-15T05:10:10;30.25;;;16.35;;
4873;SDS011;2451;49.970;9.068;2022-12-15T05:12:54;33.08;;;18.27;;
4873;SDS011;2451;49.970;9.068;2022-12-15T05:15:46;35.55;;;19.52;;
4873;SDS011;2451;49.970;9.068;2022-12-15T05:18:30;30.00;;;16.67;;
4873;SDS011;2451;49.970;9.068;2022-12-15T05:21:14;32.47;;;16.20;;
4873;SDS011;2451;49.970;9.068;2022-12-15T05:23:58;35.22;;;18.08;;
4873;SDS011;2451;49.970;9.068;2022-12-15T05:26:42;31.70;;;16.08;;
4873;SDS011;2451;49.970;9.068;2022-12-15T05:29:26;34.58;;;17.48;;
4873;SDS011;2451;49.970;9.068;2022-12-15T05:32:10;32.53;;;17.63;;
4873;SDS011;2451;49.970;9.068;2022-12-15T05:34:37;33.17;;;18.25;;
4873;SDS011;2451;49.970;9.068;2022-12-15T05:37:03;33.42;;;18.73;;
4873;SDS011;2451;49.970;9.068;2022-12-15T05:39:30;34.67;;;18.27;;
4873;SDS011;2451;49.970;9.068;2022-12-15T05:41:55;36.83;;;19.58;;
4873;SDS011;2451;49.970;9.068;2022-12-15T05:44:21;39.65;;;19.83;;
4873;SDS011;2451;49.970;9.068;2022-12-15T05:46:48;39.55;;;21.08;;
4873;SDS011;2451;49.970;9.068;2022-12-15T05:49:15;39.10;;;21.10;;
4873;SDS011;2451;49.970;9.068;2022-12-15T05:51:42;38.90;;;20.75;;
4873;SDS011;2451;49.970;9.068;2022-12-15T05:54:09;39.33;;;19.35;;
4873;SDS011;2451;49.970;9.068;2022-12-15T05:56:36;34.20;;;18.42;;
4873;SDS011;2451;49.970;9.068;2022-12-15T05:59:02;32.97;;;18.85;;
4873;SDS011;2451;49.970;9.068;2022-12-15T06:01:29;37.90;;;19.40;;
4873;SDS011;2451;49.970;9.068;2022-12-15T06:03:55;31.58;;;17.30;;
4873;SDS011;2451;49.970;9.068;2022-12-15T06:06:22;33.22;;;18.60;;
4873;SDS011;2451;49.970;9.068;2022-12-15T06:08:47;35.25;;;18.52;;
4873;SDS011;2451;49.970;9.068;2022-12-15T06:11:14;38.92;;;20.45;;
4873;SDS011;2451;49.970;9.068;2022-12-15T06:13:40;41.60;;;21.95;;
4873;SDS011;2451;49.970;9.068;2022-12-15T06:16:10;46.28;;;23.58;;
4873;SDS011;2451;49.970;9.068;2022-12-15T06:18:39;47.72;;;24.42;;
4873;SDS011;2451;49.970;9.068;2022-12-15T06:21:07;45.65;;;24.17;;
4873;SDS011;2451;49.970;9.068;2022-12-15T06:23:35;46.30;;;23.23;;
4873;SDS011;2451;49.970;9.068;2022-12-15T06:28:47;38.78;;;20.50;;
4873;SDS011;2451;49.970;9.068;2022-12-15T06:31:14;39.88;;;21.75;;
4873;SDS011;2451;49.970;9.068;2022-12-15T06:33:41;38.88;;;21.85;;
4873;SDS011;2451;49.970;9.068;2022-12-15T06:36:11;40.10;;;20.38;;
4873;SDS011;2451;49.970;9.068;2022-12-15T06:38:38;37.22;;;20.83;;
4873;SDS011;2451;49.970;9.068;2022-12-15T06:41:07;38.47;;;20.23;;
4873;SDS011;2451;49.970;9.068;2022-12-15T06:43:33;37.28;;;20.17;;
4873;SDS011;2451;49.970;9.068;2022-12-15T06:45:59;37.53;;;20.10;;
4873;SDS011;2451;49.970;9.068;2022-12-15T06:48:25;37.10;;;19.08;;
4873;SDS011;2451;49.970;9.068;2022-12-15T06:50:51;35.33;;;19.83;;
4873;SDS011;2451;49.970;9.068;2022-12-15T06:53:18;32.58;;;19.38;;
4873;SDS011;2451;49.970;9.068;2022-12-15T06:55:45;35.72;;;20.20;;
4873;SDS011;2451;49.970;9.068;2022-12-15T06:58:11;31.30;;;18.83;;
4873;SDS011;2451;49.970;9.068;2022-12-15T07:00:38;34.83;;;19.40;;
4873;SDS011;2451;49.970;9.068;2022-12-15T07:03:12;33.13;;;18.15;;
4873;SDS011;2451;49.970;9.068;2022-12-15T07:05:39;31.90;;;17.73;;
4873;SDS011;2451;49.970;9.068;2022-12-15T07:08:05;30.92;;;17.80;;
4873;SDS011;2451;49.970;9.068;2022-12-15T07:10:31;36.30;;;18.83;;
4873;SDS011;2451;49.970;9.068;2022-12-15T07:12:56;32.88;;;19.45;;
4873;SDS011;2451;49.970;9.068;2022-12-15T07:15:22;33.97;;;19.63;;
4873;SDS011;2451;49.970;9.068;2022-12-15T07:17:48;38.30;;;19.92;;
4873;SDS011;2451;49.970;9.068;2022-12-15T07:20:14;36.22;;;20.48;;
4873;SDS011;2451;49.970;9.068;2022-12-15T07:22:40;38.95;;;18.98;;
4873;SDS011;2451;49.970;9.068;2022-12-15T07:25:06;37.25;;;19.00;;
4873;SDS011;2451;49.970;9.068;2022-12-15T07:27:32;38.42;;;19.50;;
4873;SDS011;2451;49.970;9.068;2022-12-15T07:29:58;38.85;;;20.30;;
4873;SDS011;2451;49.970;9.068;2022-12-15T07:32:23;37.33;;;20.48;;
4873;SDS011;2451;49.970;9.068;2022-12-15T07:34:49;37.05;;;19.63;;
4873;SDS011;2451;49.970;9.068;2022-12-15T07:37:15;34.47;;;19.08;;
4873;SDS011;2451;49.970;9.068;2022-12-15T07:39:40;43.97;;;21.98;;
4873;SDS011;2451;49.970;9.068;2022-12-15T07:42:06;37.75;;;19.88;;
4873;SDS011;2451;49.970;9.068;2022-12-15T07:44:31;41.15;;;20.17;;
4873;SDS011;2451;49.970;9.068;2022-12-15T07:46:57;40.10;;;20.88;;
4873;SDS011;2451;49.970;9.068;2022-12-15T07:49:22;42.03;;;22.05;;
4873;SDS011;2451;49.970;9.068;2022-12-15T07:51:48;45.65;;;23.10;;
4873;SDS011;2451;49.970;9.068;2022-12-15T07:54:14;46.55;;;22.75;;
4873;SDS011;2451;49.970;9.068;2022-12-15T07:56:39;43.10;;;23.13;;
4873;SDS011;2451;49.970;9.068;2022-12-15T07:59:06;46.75;;;26.35;;
4873;SDS011;2451;49.970;9.068;2022-12-15T08:01:33;49.60;;;26.42;;
4873;SDS011;2451;49.970;9.068;2022-12-15T08:04:01;45.28;;;23.90;;
4873;SDS011;2451;49.970;9.068;2022-12-15T08:06:27;41.60;;;23.38;;
4873;SDS011;2451;49.970;9.068;2022-12-15T08:08:53;48.63;;;24.75;;
4873;SDS011;2451;49.970;9.068;2022-12-15T08:11:20;39.38;;;21.88;;
4873;SDS011;2451;49.970;9.068;2022-12-15T08:13:47;46.13;;;23.85;;
4873;SDS011;2451;49.970;9.068;2022-12-15T08:16:13;43.83;;;22.65;;
4873;SDS011;2451;49.970;9.068;2022-12-15T08:18:39;47.72;;;24.35;;
4873;SDS011;2451;49.970;9.068;2022-12-15T08:21:05;45.60;;;25.17;;
4873;SDS011;2451;49.970;9.068;2022-12-15T08:23:33;48.67;;;23.67;;
4873;SDS011;2451;49.970;9.068;2022-12-15T08:26:03;51.78;;;26.20;;
4873;SDS011;2451;49.970;9.068;2022-12-15T08:28:30;49.95;;;23.45;;
4873;SDS011;2451;49.970;9.068;2022-12-15T08:31:00;47.63;;;24.38;;
4873;SDS011;2451;49.970;9.068;2022-12-15T08:33:33;46.78;;;22.75;;
4873;SDS011;2451;49.970;9.068;2022-12-15T08:36:01;42.92;;;22.40;;
4873;SDS011;2451;49.970;9.068;2022-12-15T08:38:29;44.60;;;22.67;;
4873;SDS011;2451;49.970;9.068;2022-12-15T08:40:55;47.53;;;23.65;;
4873;SDS011;2451;49.970;9.068;2022-12-15T08:43:21;44.47;;;22.83;;
4873;SDS011;2451;49.970;9.068;2022-12-15T08:45:47;48.60;;;23.02;;
4873;SDS011;2451;49.970;9.068;2022-12-15T08:48:13;46.58;;;23.42;;
4873;SDS011;2451;49.970;9.068;2022-12-15T08:50:45;43.40;;;21.10;;
4873;SDS011;2451;49.970;9.068;2022-12-15T08:53:11;41.15;;;21.25;;
4873;SDS011;2451;49.970;9.068;2022-12-15T08:55:36;41.63;;;21.92;;
4873;SDS011;2451;49.970;9.068;2022-12-15T08:58:02;42.95;;;20.55;;
4873;SDS011;2451;49.970;9.068;2022-12-15T09:00:28;46.58;;;23.90;;
4873;SDS011;2451;49.970;9.068;2022-12-15T09:02:53;44.83;;;22.95;;
4873;SDS011;2451;49.970;9.068;2022-12-15T09:05:19;47.42;;;24.63;;
4873;SDS011;2451;49.970;9.068;2022-12-15T09:07:45;43.95;;;22.98;;
4873;SDS011;2451;49.970;9.068;2022-12-15T09:10:10;47.95;;;23.75;;
4873;SDS011;2451;49.970;9.068;2022-12-15T09:12:36;43.00;;;20.45;;
4873;SDS011;2451;49.970;9.068;2022-12-15T09:15:01;41.33;;;21.42;;
4873;SDS011;2451;49.970;9.068;2022-12-15T09:17:27;42.58;;;21.88;;
4873;SDS011;2451;49.970;9.068;2022-12-15T09:19:53;48.00;;;24.80;;
4873;SDS011;2451;49.970;9.068;2022-12-15T09:22:18;41.53;;;19.90;;
4873;SDS011;2451;49.970;9.068;2022-12-15T09:24:44;40.17;;;20.92;;
4873;SDS011;2451;49.970;9.068;2022-12-15T09:27:10;41.38;;;21.27;;
4873;SDS011;2451;49.970;9.068;2022-12-15T09:29:36;40.28;;;21.40;;
4873;SDS011;2451;49.970;9.068;2022-12-15T09:32:01;40.53;;;20.23;;
4873;SDS011;2451;49.970;9.068;2022-12-15T09:34:27;40.08;;;21.27;;
4873;SDS011;2451;49.970;9.068;2022-12-15T09:36:53;46.65;;;24.10;;
4873;SDS011;2451;49.970;9.068;2022-12-15T09:39:18;45.17;;;22.98;;
4873;SDS011;2451;49.970;9.068;2022-12-15T09:41:48;41.03;;;21.05;;
4873;SDS011;2451;49.970;9.068;2022-12-15T09:44:22;45.90;;;22.55;;
4873;SDS011;2451;49.970;9.068;2022-12-15T09:55:04;48.33;;;24.45;;
4873;SDS011;2451;49.970;9.068;2022-12-15T09:57:46;46.45;;;23.80;;
4873;SDS011;2451;49.970;9.068;2022-12-15T10:00:21;51.28;;;25.38;;
4873;SDS011;2451;49.970;9.068;2022-12-15T10:08:20;43.95;;;21.95;;
4873;SDS011;2451;49.970;9.068;2022-12-15T10:11:01;41.92;;;22.00;;
4873;SDS011;2451;49.970;9.068;2022-12-15T10:14:12;39.22;;;20.67;;
4873;SDS011;2451;49.970;9.068;2022-12-15T10:19:06;44.92;;;21.55;;
4873;SDS011;2451;49.970;9.068;2022-12-15T10:21:38;52.78;;;24.25;;
4873;SDS011;2451;49.970;9.068;2022-12-15T10:24:10;53.42;;;24.52;;
4873;SDS011;2451;49.970;9.068;2022-12-15T10:27:35;47.65;;;23.38;;
4873;SDS011;2451;49.970;9.068;2022-12-15T10:32:43;47.38;;;22.40;;
4873;SDS011;2451;49.970;9.068;2022-12-15T10:35:24;45.78;;;23.50;;
4873;SDS011;2451;49.970;9.068;2022-12-15T10:38:08;51.95;;;23.35;;
4873;SDS011;2451;49.970;9.068;2022-12-15T10:40:53;67.53;;;27.48;;
4873;SDS011;2451;49.970;9.068;2022-12-15T10:43:27;65.13;;;26.38;;
4873;SDS011;2451;49.970;9.068;2022-12-15T10:46:04;46.97;;;22.55;;
4873;SDS011;2451;49.970;9.068;2022-12-15T10:48:32;48.95;;;23.42;;
4873;SDS011;2451;49.970;9.068;2022-12-15T10:51:33;56.13;;;24.95;;
4873;SDS011;2451;49.970;9.068;2022-12-15T10:56:34;51.83;;;23.15;;
4873;SDS011;2451;49.970;9.068;2022-12-15T10:59:32;53.85;;;24.55;;
4873;SDS011;2451;49.970;9.068;2022-12-15T11:05:04;54.85;;;26.20;;
4873;SDS011;2451;49.970;9.068;2022-12-15T11:07:47;67.57;;;28.30;;
4873;SDS011;2451;49.970;9.068;2022-12-15T11:10:21;52.90;;;25.00;;
4873;SDS011;2451;49.970;9.068;2022-12-15T11:12:56;48.85;;;24.92;;
4873;SDS011;2451;49.970;9.068;2022-12-15T11:15:44;49.85;;;23.45;;
4873;SDS011;2451;49.970;9.068;2022-12-15T11:20:51;46.75;;;22.83;;
4873;SDS011;2451;49.970;9.068;2022-12-15T11:28:45;45.53;;;23.08;;
4873;SDS011;2451;49.970;9.068;2022-12-15T11:31:16;43.08;;;22.45;;
4873;SDS011;2451;49.970;9.068;2022-12-15T11:33:44;46.72;;;23.17;;
4873;SDS011;2451;49.970;9.068;2022-12-15T11:36:18;45.25;;;22.60;;
4873;SDS011;2451;49.970;9.068;2022-12-15T11:39:31;43.97;;;22.50;;
4873;SDS011;2451;49.970;9.068;2022-12-15T11:42:06;48.67;;;23.50;;
4873;SDS011;2451;49.970;9.068;2022-12-15T11:44:47;41.60;;;21.17;;
4873;SDS011;2451;49.970;9.068;2022-12-15T11:47:42;40.80;;;22.00;;
4873;SDS011;2451;49.970;9.068;2022-12-15T11:52:49;39.92;;;21.42;;
4873;SDS011;2451;49.970;9.068;2022-12-15T11:56:00;44.75;;;24.20;;
4873;SDS011;2451;49.970;9.068;2022-12-15T11:58:58;41.40;;;22.15;;
4873;SDS011;2451;49.970;9.068;2022-12-15T12:01:50;42.13;;;22.55;;
4873;SDS011;2451;49.970;9.068;2022-12-15T12:04:42;39.80;;;20.65;;
4873;SDS011;2451;49.970;9.068;2022-12-15T12:15:44;49.17;;;23.73;;
4873;SDS011;2451;49.970;9.068;2022-12-15T12:18:15;43.03;;;23.05;;
4873;SDS011;2451;49.970;9.068;2022-12-15T12:20:50;44.20;;;22.33;;
4873;SDS011;2451;49.970;9.068;2022-12-15T12:23:51;46.17;;;22.20;;
4873;SDS011;2451;49.970;9.068;2022-12-15T12:29:15;45.80;;;22.85;;
4873;SDS011;2451;49.970;9.068;2022-12-15T12:31:56;45.45;;;22.90;;
4873;SDS011;2451;49.970;9.068;2022-12-15T12:34:28;46.85;;;23.92;;
4873;SDS011;2451;49.970;9.068;2022-12-15T12:37:11;44.75;;;23.08;;
4873;SDS011;2451;49.970;9.068;2022-12-15T12:39:42;41.53;;;21.52;;
4873;SDS011;2451;49.970;9.068;2022-12-15T12:42:11;40.92;;;20.77;;
4873;SDS011;2451;49.970;9.068;2022-12-15T12:44:41;44.67;;;21.63;;
4873;SDS011;2451;49.970;9.068;2022-12-15T12:47:19;46.67;;;23.38;;
4873;SDS011;2451;49.970;9.068;2022-12-15T12:49:59;42.20;;;22.08;;
4873;SDS011;2451;49.970;9.068;2022-12-15T12:52:29;57.35;;;27.27;;
4873;SDS011;2451;49.970;9.068;2022-12-15T12:54:58;53.90;;;26.50;;
4873;SDS011;2451;49.970;9.068;2022-12-15T12:57:45;43.67;;;22.65;;
4873;SDS011;2451;49.970;9.068;2022-12-15T13:00:15;38.58;;;21.30;;
4873;SDS011;2451;49.970;9.068;2022-12-15T13:02:48;38.72;;;20.98;;
4873;SDS011;2451;49.970;9.068;2022-12-15T13:05:22;39.05;;;20.83;;
4873;SDS011;2451;49.970;9.068;2022-12-15T13:10:35;40.30;;;21.42;;
4873;SDS011;2451;49.970;9.068;2022-12-15T13:16:35;41.83;;;21.55;;
4873;SDS011;2451;49.970;9.068;2022-12-15T13:19:05;39.05;;;20.70;;
4873;SDS011;2451;49.970;9.068;2022-12-15T13:29:35;41.08;;;21.35;;
4873;SDS011;2451;49.970;9.068;2022-12-15T13:48:23;42.05;;;21.98;;
4873;SDS011;2451;49.970;9.068;2022-12-15T13:54:11;40.10;;;22.08;;
4873;SDS011;2451;49.970;9.068;2022-12-15T13:59:13;39.85;;;21.02;;
4873;SDS011;2451;49.970;9.068;2022-12-15T14:01:50;48.17;;;22.33;;
4873;SDS011;2451;49.970;9.068;2022-12-15T14:04:17;40.25;;;20.45;;
4873;SDS011;2451;49.970;9.068;2022-12-15T14:09:27;41.63;;;20.55;;
4873;SDS011;2451;49.970;9.068;2022-12-15T14:11:58;44.75;;;21.50;;
4873;SDS011;2451;49.970;9.068;2022-12-15T14:14:31;47.35;;;24.48;;
4873;SDS011;2451;49.970;9.068;2022-12-15T14:17:01;39.58;;;21.98;;
4873;SDS011;2451;49.970;9.068;2022-12-15T14:19:37;43.05;;;22.00;;
4873;SDS011;2451;49.970;9.068;2022-12-15T14:22:15;43.85;;;21.63;;
4873;SDS011;2451;49.970;9.068;2022-12-15T14:24:43;43.03;;;21.13;;
4873;SDS011;2451;49.970;9.068;2022-12-15T14:27:20;52.20;;;24.90;;
4873;SDS011;2451;49.970;9.068;2022-12-15T14:29:47;52.70;;;25.90;;
4873;SDS011;2451;49.970;9.068;2022-12-15T14:32:12;53.55;;;25.13;;
4873;SDS011;2451;49.970;9.068;2022-12-15T14:34:40;51.38;;;23.92;;
4873;SDS011;2451;49.970;9.068;2022-12-15T14:37:10;48.17;;;24.83;;
4873;SDS011;2451;49.970;9.068;2022-12-15T14:39:42;44.50;;;23.20;;
4873;SDS011;2451;49.970;9.068;2022-12-15T14:42:25;44.80;;;23.00;;
4873;SDS011;2451;49.970;9.068;2022-12-15T14:44:52;44.50;;;21.95;;
4873;SDS011;2451;49.970;9.068;2022-12-15T14:47:22;48.72;;;22.60;;
4873;SDS011;2451;49.970;9.068;2022-12-15T14:52:33;46.88;;;21.42;;
4873;SDS011;2451;49.970;9.068;2022-12-15T14:55:23;41.33;;;21.30;;
4873;SDS011;2451;49.970;9.068;2022-12-15T14:57:58;48.45;;;22.13;;
4873;SDS011;2451;49.970;9.068;2022-12-15T15:00:31;47.08;;;22.05;;
4873;SDS011;2451;49.970;9.068;2022-12-15T15:06:15;45.80;;;22.85;;
4873;SDS011;2451;49.970;9.068;2022-12-15T15:11:24;43.85;;;21.88;;
4873;SDS011;2451;49.970;9.068;2022-12-15T15:14:02;42.25;;;21.27;;
4873;SDS011;2451;49.970;9.068;2022-12-15T15:16:35;46.72;;;23.60;;
4873;SDS011;2451;49.970;9.068;2022-12-15T15:19:02;44.78;;;23.00;;
4873;SDS011;2451;49.970;9.068;2022-12-15T15:21:29;47.00;;;24.48;;
4873;SDS011;2451;49.970;9.068;2022-12-15T15:26:28;44.50;;;22.17;;
4873;SDS011;2451;49.970;9.068;2022-12-15T15:28:55;45.35;;;23.15;;
4873;SDS011;2451;49.970;9.068;2022-12-15T15:33:53;58.85;;;28.40;;
4873;SDS011;2451;49.970;9.068;2022-12-15T15:36:20;57.72;;;29.38;;
4873;SDS011;2451;49.970;9.068;2022-12-15T15:38:48;56.67;;;27.42;;
4873;SDS011;2451;49.970;9.068;2022-12-15T15:41:18;52.50;;;26.15;;
4873;SDS011;2451;49.970;9.068;2022-12-15T15:43:46;50.42;;;23.58;;
4873;SDS011;2451;49.970;9.068;2022-12-15T15:46:13;52.17;;;26.38;;
4873;SDS011;2451;49.970;9.068;2022-12-15T15:48:43;47.88;;;23.15;;
4873;SDS011;2451;49.970;9.068;2022-12-15T15:51:15;46.45;;;22.67;;
4873;SDS011;2451;49.970;9.068;2022-12-15T15:53:42;49.97;;;25.50;;
4873;SDS011;2451;49.970;9.068;2022-12-15T15:56:08;53.15;;;26.45;;
4873;SDS011;2451;49.970;9.068;2022-12-15T15:58:35;53.60;;;25.55;;
4873;SDS011;2451;49.970;9.068;2022-12-15T16:01:01;63.35;;;29.50;;
4873;SDS011;2451;49.970;9.068;2022-12-15T16:03:27;54.10;;;28.90;;
4873;SDS011;2451;49.970;9.068;2022-12-15T16:05:53;63.65;;;31.02;;
4873;SDS011;2451;49.970;9.068;2022-12-15T16:08:26;56.08;;;29.08;;
4873;SDS011;2451;49.970;9.068;2022-12-15T16:10:55;62.92;;;31.08;;
4873;SDS011;2451;49.970;9.068;2022-12-15T16:13:20;63.30;;;31.00;;
4873;SDS011;2451;49.970;9.068;2022-12-15T16:15:46;60.90;;;31.10;;
4873;SDS011;2451;49.970;9.068;2022-12-15T16:18:13;63.92;;;31.55;;
4873;SDS011;2451;49.970;9.068;2022-12-15T16:20:39;60.22;;;29.08;;
4873;SDS011;2451;49.970;9.068;2022-12-15T16:23:10;56.83;;;26.92;;
4873;SDS011;2451;49.970;9.068;2022-12-15T16:25:55;54.88;;;27.27;;
4873;SDS011;2451;49.970;9.068;2022-12-15T16:28:23;54.95;;;27.15;;
4873;SDS011;2451;49.970;9.068;2022-12-15T16:30:51;57.50;;;30.83;;
4873;SDS011;2451;49.970;9.068;2022-12-15T16:33:17;61.88;;;32.10;;
4873;SDS011;2451;49.970;9.068;2022-12-15T16:35:43;62.72;;;31.02;;
4873;SDS011;2451;49.970;9.068;2022-12-15T16:38:13;54.38;;;27.85;;
4873;SDS011;2451;49.970;9.068;2022-12-15T16:40:47;56.58;;;29.10;;
4873;SDS011;2451;49.970;9.068;2022-12-15T16:43:16;62.08;;;28.90;;
4873;SDS011;2451;49.970;9.068;2022-12-15T16:45:45;58.20;;;29.20;;
4873;SDS011;2451;49.970;9.068;2022-12-15T16:48:13;55.37;;;27.37;;
4873;SDS011;2451;49.970;9.068;2022-12-15T16:50:43;53.50;;;27.05;;
4873;SDS011;2451;49.970;9.068;2022-12-15T16:53:20;54.38;;;28.38;;
4873;SDS011;2451;49.970;9.068;2022-12-15T16:55:50;62.22;;;30.55;;
4873;SDS011;2451;49.970;9.068;2022-12-15T16:58:21;60.38;;;29.75;;
4873;SDS011;2451;49.970;9.068;2022-12-15T17:00:49;51.22;;;24.38;;
4873;SDS011;2451;49.970;9.068;2022-12-15T17:03:15;49.03;;;25.52;;
4873;SDS011;2451;49.970;9.068;2022-12-15T17:05:43;48.20;;;24.13;;
4873;SDS011;2451;49.970;9.068;2022-12-15T17:11:00;48.70;;;25.05;;
4873;SDS011;2451;49.970;9.068;2022-12-15T17:16:03;48.08;;;23.58;;
4873;SDS011;2451;49.970;9.068;2022-12-15T17:18:29;49.40;;;23.67;;
4873;SDS011;2451;49.970;9.068;2022-12-15T17:21:12;48.40;;;21.83;;
4873;SDS011;2451;49.970;9.068;2022-12-15T17:23:38;45.67;;;21.80;;
4873;SDS011;2451;49.970;9.068;2022-12-15T17:26:05;50.08;;;23.45;;
4873;SDS011;2451;49.970;9.068;2022-12-15T17:28:32;45.17;;;23.45;;
4873;SDS011;2451;49.970;9.068;2022-12-15T17:31:01;46.08;;;23.52;;
4873;SDS011;2451;49.970;9.068;2022-12-15T17:33:28;48.90;;;23.77;;